Time;durP1;ratioP1;P1;durP2;ratioP2;P2;SDS_P1;SDS_P2;PMS_P1;PMS_P2;Temp;Humidity;BMP_temperature;BMP_pressure;BME280_temperature;BME280_humidity;BME280_pressure;Samples;Min_cycle;Max_cycle;Signal;HPM_P1;HPM_P2
2022/12/06 00:01:45;;;;;;;9.57;6.70;;;;;;;4.31;100.00;102054.09;4835255;29;20040;-75
2022/12/06 00:04:13;;;;;;;8.40;6.32;;;;;;;4.31;100.00;102046.22;4838823;29;20069;-75
2022/12/06 00:06:43;;;;;;;8.18;6.18;;;;;;;4.31;100.00;102046.22;4838610;29;20029;-75
2022/12/06 00:09:16;;;;;;;8.90;6.47;;;;;;;4.30;100.00;102044.44;4840209;29;20513;-75
2022/12/06 00:11:42;;;;;;;8.15;6.40;;;;;;;4.31;100.00;102041.84;4825037;29;20109;-75
2022/12/06 00:14:07;;;;;;;7.40;6.22;;;;;;;4.31;100.00;102038.34;4837506;29;20049;-75
2022/12/06 00:16:34;;;;;;;9.52;6.75;;;;;;;4.31;100.00;102038.34;4837257;29;20098;-75
2022/12/06 00:19:00;;;;;;;6.72;5.82;;;;;;;4.30;100.00;102034.84;4835683;29;20053;-75
2022/12/06 00:21:31;;;;;;;7.88;6.22;;;;;;;4.31;100.00;102039.25;4839787;29;20455;-75
2022/12/06 00:24:00;;;;;;;8.45;6.05;;;;;;;4.30;100.00;102040.09;4823516;29;20398;-75
2022/12/06 00:26:26;;;;;;;8.02;5.70;;;;;;;4.30;100.00;102036.56;4824341;29;20048;-75
2022/12/06 00:28:54;;;;;;;9.40;6.05;;;;;;;4.30;100.00;102040.09;4837080;29;20403;-75
2022/12/06 00:31:22;;;;;;;8.10;5.88;;;;;;;4.30;100.00;102039.19;4833749;29;20030;-75
2022/12/06 00:33:47;;;;;;;8.63;6.55;;;;;;;4.31;100.00;102038.34;4834495;29;20120;-75
2022/12/06 00:36:16;;;;;;;8.30;6.53;;;;;;;4.31;100.00;102040.97;4833789;29;20053;-75
2022/12/06 00:38:42;;;;;;;7.88;5.88;;;;;;;4.31;100.00;102039.25;4837379;29;20037;-75
2022/12/06 00:41:15;;;;;;;7.45;5.93;;;;;;;4.33;100.00;102041.91;4813708;29;20050;-75
2022/12/06 00:43:41;;;;;;;7.15;5.63;;;;;;;4.32;100.00;102038.38;4839456;29;20037;-75
2022/12/06 00:46:09;;;;;;;7.00;5.25;;;;;;;4.33;100.00;102039.28;4839672;29;20030;-75
2022/12/06 00:48:35;;;;;;;6.97;5.47;;;;;;;4.32;100.00;102038.38;4834199;29;20030;-75
2022/12/06 00:51:01;;;;;;;7.68;5.93;;;;;;;4.33;100.00;102036.66;4836610;29;20064;-75
2022/12/06 00:53:26;;;;;;;8.27;5.93;;;;;;;4.33;100.00;102039.28;4839611;29;20078;-75
2022/12/06 00:55:53;;;;;;;9.05;6.07;;;;;;;4.33;100.00;102039.28;4841124;29;20100;-75
2022/12/06 00:58:20;;;;;;;8.43;6.25;;;;;;;4.32;100.00;102041.00;4824629;29;20042;-75
2022/12/06 01:00:45;;;;;;;8.02;5.75;;;;;;;4.32;100.00;102033.13;4818515;29;20042;-75
2022/12/06 01:03:11;;;;;;;9.20;6.13;;;;;;;4.34;100.00;102038.41;4836905;29;20038;-75
2022/12/06 01:05:41;;;;;;;9.27;6.03;;;;;;;4.35;100.00;102042.81;4826387;29;20053;-75
2022/12/06 01:08:07;;;;;;;9.03;5.83;;;;;;;4.35;100.00;102041.94;4819733;29;20404;-75
2022/12/06 01:10:33;;;;;;;7.95;6.13;;;;;;;4.35;100.00;102040.19;4838604;29;20054;-75
2022/12/06 01:12:58;;;;;;;8.55;7.05;;;;;;;4.35;100.00;102048.03;4839562;29;20140;-75
2022/12/06 01:15:24;;;;;;;8.88;6.78;;;;;;;4.34;100.00;102035.81;4837888;29;20045;-75
2022/12/06 01:17:49;;;;;;;8.85;6.18;;;;;;;4.36;100.00;102038.47;4822958;29;20034;-75
2022/12/06 01:20:14;;;;;;;8.90;6.63;;;;;;;4.36;100.00;102047.22;4838705;29;20045;-75
2022/12/06 01:22:40;;;;;;;13.02;6.50;;;;;;;4.36;100.00;102041.09;4839386;29;20102;-75
2022/12/06 01:25:06;;;;;;;8.57;6.47;;;;;;;4.37;100.00;102040.22;4838573;29;20451;-75
2022/12/06 01:27:31;;;;;;;13.50;7.50;;;;;;;4.36;100.00;102038.47;4818148;29;20050;-75
2022/12/06 01:29:56;;;;;;;10.13;6.03;;;;;;;4.37;100.00;102034.97;4836872;29;20041;-75
2022/12/06 01:32:22;;;;;;;10.57;6.43;;;;;;;4.35;100.00;102041.94;4838409;29;20038;-75
2022/12/06 01:34:51;;;;;;;9.32;6.38;;;;;;;4.36;100.00;102036.72;4840088;29;20034;-75
2022/12/06 01:37:17;;;;;;;8.30;5.93;;;;;;;4.36;100.00;102039.34;4837679;29;20079;-75
2022/12/06 01:39:43;;;;;;;7.35;5.82;;;;;;;4.35;100.00;102045.41;4837831;29;20085;-75
2022/12/06 01:42:10;;;;;;;6.72;5.22;;;;;;;4.36;100.00;102047.22;4838818;29;20045;-75
2022/12/06 01:44:39;;;;;;;7.65;5.47;;;;;;;4.36;100.00;102044.59;4836681;29;20026;-75
2022/12/06 01:47:12;;;;;;;9.48;5.70;;;;;;;4.35;100.00;102044.53;4839838;29;20049;-75
2022/12/06 01:49:40;;;;;;;7.53;5.18;;;;;;;4.33;100.00;102049.78;4838502;29;20484;-75
2022/12/06 01:52:10;;;;;;;9.48;4.80;;;;;;;4.35;100.00;102042.81;4839654;29;20442;-75
2022/12/06 01:54:36;;;;;;;6.90;4.97;;;;;;;4.34;100.00;102034.91;4838906;29;20073;-75
2022/12/06 01:57:04;;;;;;;6.07;4.72;;;;;;;4.32;100.00;102038.38;4821344;29;20038;-75
2022/12/06 01:59:29;;;;;;;14.20;5.75;;;;;;;4.31;100.00;102038.34;4831845;29;20166;-75
2022/12/06 02:01:55;;;;;;;6.30;5.10;;;;;;;4.32;100.00;102040.13;4817975;29;20490;-75
2022/12/06 02:04:22;;;;;;;7.68;5.15;;;;;;;4.32;100.00;102029.63;4839408;29;20034;-75
2022/12/06 02:06:49;;;;;;;8.57;4.90;;;;;;;4.31;100.00;102036.63;4834879;29;20022;-75
2022/12/06 02:09:16;;;;;;;9.13;5.03;;;;;;;4.32;100.00;102034.88;4840132;29;20563;-75
2022/12/06 02:11:42;;;;;;;10.48;5.47;;;;;;;4.32;100.00;102037.50;4835643;29;20042;-75
2022/12/06 02:14:14;;;;;;;7.88;5.20;;;;;;;4.31;100.00;102039.25;4833361;29;20050;-75
2022/12/06 02:16:48;;;;;;;8.45;5.47;;;;;;;4.30;100.00;102037.47;4839105;29;20040;-75
2022/12/06 02:19:48;;;;;;;7.57;5.60;;;;;;;4.31;100.00;102035.72;4819278;29;20395;-75
2022/12/06 02:22:22;;;;;;;8.98;5.00;;;;;;;4.29;100.00;102038.31;4834842;29;20042;-75
2022/12/06 02:24:58;;;;;;;8.38;5.43;;;;;;;4.28;100.00;102033.94;4838066;29;20038;-75
2022/12/06 02:27:33;;;;;;;6.68;5.35;;;;;;;4.28;100.00;102038.28;4815260;29;20125;-75
2022/12/06 02:30:17;;;;;;;9.68;6.03;;;;;;;4.27;100.00;102031.25;4838862;29;20396;-75
2022/12/06 02:33:04;;;;;;;9.00;5.00;;;;;;;4.28;100.00;102033.06;4836487;29;20050;-75
2022/12/06 02:35:46;;;;;;;9.23;5.40;;;;;;;4.28;100.00;102025.19;4836637;29;20046;-75
2022/12/06 02:38:18;;;;;;;9.32;5.68;;;;;;;4.26;100.00;102021.63;4823589;29;20041;-75
2022/12/06 02:40:53;;;;;;;12.25;5.68;;;;;;;4.28;100.00;102028.69;4823366;29;20030;-75
2022/12/06 02:43:36;;;;;;;8.43;5.50;;;;;;;4.28;100.00;102017.31;4806356;29;20475;-75
2022/12/06 02:46:04;;;;;;;12.00;5.80;;;;;;;4.28;100.00;102025.19;4821127;29;20424;-75
2022/12/06 02:48:32;;;;;;;10.30;6.22;;;;;;;4.26;100.00;102022.50;4825031;29;20043;-75
2022/12/06 02:51:03;;;;;;;7.95;5.43;;;;;;;4.27;100.00;102020.78;4806104;29;20061;-75
2022/12/06 02:53:33;;;;;;;9.07;5.55;;;;;;;4.28;100.00;102012.06;4822588;29;20030;-75
2022/12/06 02:55:59;;;;;;;9.73;6.50;;;;;;;4.27;100.00;102018.16;4822148;29;20129;-75
2022/12/06 02:58:25;;;;;;;9.95;6.55;;;;;;;4.26;100.00;102012.03;4808277;29;20090;-75
2022/12/06 03:01:01;;;;;;;8.75;6.63;;;;;;;4.26;100.00;102008.53;4820720;29;20065;-75
2022/12/06 03:03:48;;;;;;;11.52;5.78;;;;;;;4.27;100.00;102016.41;4813127;29;20065;-75
2022/12/06 03:06:39;;;;;;;10.13;5.50;;;;;;;4.28;100.00;102012.94;4808033;29;20053;-75
2022/12/06 03:09:04;;;;;;;;;;;;;;;4.33;100.00;102015.69;4824660;29;20418;-75
2022/12/06 03:11:55;;;;;;;12.20;6.82;;;;;;;4.31;100.00;102020.88;4822068;29;19933;-75
2022/12/06 03:14:24;;;;;;;9.25;5.68;;;;;;;4.29;100.00;102016.44;4835314;29;20038;-75
2022/12/06 03:16:58;;;;;;;11.10;6.75;;;;;;;4.29;100.00;102016.44;4812763;29;20125;-75
2022/12/06 03:19:27;;;;;;;9.13;6.68;;;;;;;4.28;100.00;102018.19;4817128;29;20049;-75
2022/12/06 03:22:11;;;;;;;13.40;7.25;;;;;;;4.29;100.00;102016.44;4826263;29;20050;-75
2022/12/06 03:24:40;;;;;;;12.77;6.10;;;;;;;4.30;100.00;102020.84;4834398;29;20081;-75
2022/12/06 03:27:13;;;;;;;13.18;6.18;;;;;;;4.31;100.00;102027.88;4828816;29;20046;-75
2022/12/06 03:30:02;;;;;;;10.93;6.65;;;;;;;4.31;100.00;102030.50;4834110;29;20129;-75
2022/12/06 03:32:32;;;;;;;11.27;6.63;;;;;;;4.30;100.00;102026.09;4839690;29;20048;-75
2022/12/06 03:35:02;;;;;;;13.93;6.93;;;;;;;4.30;100.00;102032.25;4835503;29;20030;-75
2022/12/06 03:37:31;;;;;;;12.70;6.93;;;;;;;4.28;100.00;102027.81;4830789;29;20072;-75
2022/12/06 03:40:18;;;;;;;13.57;6.65;;;;;;;4.31;100.00;102020.00;4815293;29;20038;-75
2022/12/06 03:42:45;;;;;;;9.98;6.03;;;;;;;4.31;100.00;102027.88;4842770;29;20064;-75
2022/12/06 03:45:13;;;;;;;15.60;6.82;;;;;;;4.29;100.00;102022.56;4843544;29;20137;-75
2022/12/06 03:47:57;;;;;;;12.07;7.13;;;;;;;4.30;100.00;102016.50;4840382;29;20049;-75
2022/12/06 03:50:36;;;;;;;9.93;6.35;;;;;;;4.30;100.00;102027.00;4814847;29;20045;-75
2022/12/06 03:53:02;;;;;;;9.60;5.93;;;;;;;4.27;100.00;102013.78;4825134;29;20096;-75
2022/12/06 03:55:28;;;;;;;9.70;6.72;;;;;;;4.27;100.00;102013.78;4835909;29;20061;-75
2022/12/06 03:57:53;;;;;;;12.88;6.68;;;;;;;4.27;100.00;102021.66;4823302;29;20046;-75
2022/12/06 04:00:19;;;;;;;12.25;6.63;;;;;;;4.28;100.00;102020.81;4827140;29;20050;-75
2022/12/06 04:02:44;;;;;;;17.65;6.28;;;;;;;4.26;100.00;102024.25;4824884;29;20118;-75
2022/12/06 04:05:10;;;;;;;12.30;5.93;;;;;;;4.27;100.00;102020.78;4814376;29;20058;-75
2022/12/06 04:07:36;;;;;;;13.68;6.60;;;;;;;4.26;100.00;102013.78;4825061;29;20046;-75
2022/12/06 04:10:02;;;;;;;15.27;6.55;;;;;;;4.26;100.00;102012.03;4829717;29;20041;-75
2022/12/06 04:15:14;;;;;;;16.13;6.13;;;;;;;4.27;100.00;102021.66;4823756;29;20046;-75
2022/12/06 04:20:26;;;;;;;12.55;6.07;;;;;;;4.26;100.00;102016.41;4827315;29;20391;-75
2022/12/06 04:23:04;;;;;;;9.82;6.13;;;;;;;4.25;100.00;102010.28;4818364;29;20046;-75
2022/12/06 04:25:31;;;;;;;11.43;5.55;;;;;;;4.25;100.00;102009.34;4842020;29;20057;-75
2022/12/06 04:38:52;;;;;;;12.50;5.35;;;;;;;4.22;100.00;102017.16;4835713;29;20094;-75
2022/12/06 04:44:03;;;;;;;14.85;5.82;;;;;;;4.23;100.00;102027.69;4825554;29;20042;-75
2022/12/06 04:46:28;;;;;;;14.25;6.18;;;;;;;4.23;100.00;102016.34;4842575;29;20067;-75
2022/12/06 04:48:54;;;;;;;11.65;5.65;;;;;;;4.22;100.00;102025.91;4831869;29;20055;-75
2022/12/06 04:51:20;;;;;;;15.18;5.78;;;;;;;4.23;100.00;102022.44;4824123;29;20094;-75
2022/12/06 04:53:46;;;;;;;10.43;5.82;;;;;;;4.21;100.00;102013.66;4824080;29;20050;-75
2022/12/06 04:56:11;;;;;;;15.52;6.20;;;;;;;4.23;100.00;102017.22;4827581;29;20394;-75
2022/12/06 04:58:37;;;;;;;12.38;5.63;;;;;;;4.23;100.00;102017.22;4816876;29;20042;-75
2022/12/06 05:01:02;;;;;;;16.23;5.47;;;;;;;4.23;100.00;102014.59;4822320;29;20440;-75
2022/12/06 05:03:28;;;;;;;12.82;5.70;;;;;;;4.22;100.00;102012.78;4814708;29;20041;-75
2022/12/06 05:05:53;;;;;;;12.57;4.95;;;;;;;4.22;100.00;102019.78;4835598;29;20356;-75
2022/12/06 05:08:19;;;;;;;11.48;5.10;;;;;;;4.21;100.00;102013.66;4836603;29;20042;-75
2022/12/06 05:10:49;;;;;;;16.40;5.38;;;;;;;4.21;100.00;102018.91;4834476;29;20037;-75
2022/12/06 05:13:16;;;;;;;12.27;5.75;;;;;;;4.21;100.00;102013.66;4828884;29;20054;-75
2022/12/06 05:15:53;;;;;;;11.88;5.35;;;;;;;4.22;100.00;102007.56;4842191;29;20065;-75
2022/12/06 05:18:18;;;;;;;7.95;4.43;;;;;;;4.21;100.00;102008.41;4829253;29;20043;-75
2022/12/06 05:20:44;;;;;;;10.85;5.32;;;;;;;4.22;100.00;102010.16;4840922;29;20053;-75
2022/12/06 05:23:10;;;;;;;8.38;4.50;;;;;;;4.21;100.00;102012.78;4834641;29;20046;-75
2022/12/06 05:25:36;;;;;;;17.65;5.10;;;;;;;4.20;100.00;102013.59;4841747;29;20038;-75
2022/12/06 05:28:01;;;;;;;9.13;4.75;;;;;;;4.18;100.00;102012.69;4833157;29;20464;-75
2022/12/06 05:30:27;;;;;;;10.00;4.70;;;;;;;4.16;100.00;102014.41;4819703;29;20038;-75
2022/12/06 05:32:52;;;;;;;9.18;4.53;;;;;;;4.15;100.00;102010.88;4823565;29;20038;-75
2022/12/06 05:35:18;;;;;;;18.50;5.32;;;;;;;4.14;100.00;102006.50;4819863;29;20048;-75
2022/12/06 05:37:43;;;;;;;14.18;4.63;;;;;;;4.15;100.00;102016.13;4828598;29;20049;-75
2022/12/06 05:40:09;;;;;;;10.43;4.35;;;;;;;4.15;100.00;102018.75;4828449;29;20344;-75
2022/12/06 05:42:35;;;;;;;13.88;4.38;;;;;;;4.13;100.00;102012.59;4823393;29;20113;-75
2022/12/06 05:45:00;;;;;;;12.85;4.05;;;;;;;4.15;100.00;102012.63;4807018;29;20106;-75
2022/12/06 05:47:25;;;;;;;9.65;4.32;;;;;;;4.11;100.00;102006.44;4834716;29;20049;-75
2022/12/06 05:49:51;;;;;;;11.32;4.65;;;;;;;4.09;100.00;102008.13;4812739;29;20507;-75
2022/12/06 05:52:16;;;;;;;9.93;4.22;;;;;;;4.10;100.00;102012.50;4837396;29;20041;-75
2022/12/06 05:54:42;;;;;;;11.63;4.55;;;;;;;4.07;100.00;102013.31;4790158;29;20026;-75
2022/12/06 05:57:07;;;;;;;9.40;4.22;;;;;;;4.08;100.00;102014.25;4838009;29;20046;-75
2022/12/06 05:59:33;;;;;;;12.85;4.00;;;;;;;4.08;100.00;102015.13;4831897;29;20432;-75
2022/12/06 06:01:58;;;;;;;11.23;4.55;;;;;;;4.08;100.00;102011.63;4822254;29;20037;-75
2022/12/06 06:04:24;;;;;;;8.98;4.05;;;;;;;4.05;100.00;102012.41;4810871;29;20512;-75
2022/12/06 06:06:50;;;;;;;9.77;4.63;;;;;;;4.06;100.00;102014.19;4828368;29;20026;-75
2022/12/06 06:09:16;;;;;;;9.07;4.13;;;;;;;4.07;100.00;102015.06;4818023;29;20041;-75
2022/12/06 06:11:41;;;;;;;8.18;4.07;;;;;;;4.06;100.00;102016.81;4834810;29;20375;-75
2022/12/06 06:14:07;;;;;;;10.93;4.25;;;;;;;4.04;100.00;102021.13;4836739;29;20065;-75
2022/12/06 06:16:33;;;;;;;10.13;4.30;;;;;;;4.05;100.00;102019.38;4837552;29;20044;-75
2022/12/06 06:19:00;;;;;;;7.22;3.85;;;;;;;4.02;100.00;102021.94;4827376;29;20042;-75
2022/12/06 06:21:26;;;;;;;8.85;4.15;;;;;;;4.01;100.00;102020.19;4828848;29;20031;-75
2022/12/06 06:23:52;;;;;;;9.02;3.78;;;;;;;4.00;100.00;102015.78;4836747;29;20172;-75
2022/12/06 06:26:17;;;;;;;12.55;3.88;;;;;;;3.98;100.00;102022.69;4832185;29;20134;-75
2022/12/06 06:28:43;;;;;;;9.70;3.92;;;;;;;3.96;100.00;102013.94;4822668;29;20146;-75
2022/12/06 06:31:08;;;;;;;16.85;3.92;;;;;;;3.94;100.00;102021.75;4822651;29;20038;-75
2022/12/06 06:33:35;;;;;;;9.43;4.40;;;;;;;3.94;100.00;102024.38;4822570;29;20031;-75
2022/12/06 06:36:00;;;;;;;9.82;3.97;;;;;;;3.94;100.00;102026.13;4824368;29;20053;-75
2022/12/06 06:38:26;;;;;;;8.75;4.10;;;;;;;3.91;100.00;102016.44;4836005;29;20045;-75
2022/12/06 06:40:51;;;;;;;11.98;4.43;;;;;;;3.90;100.00;102019.03;4831605;29;20117;-75
2022/12/06 06:43:17;;;;;;;9.38;3.72;;;;;;;3.88;100.00;102024.22;4822406;29;20043;-73
2022/12/06 06:45:44;;;;;;;7.40;3.72;;;;;;;3.86;100.00;102021.56;4806500;29;20459;-73
2022/12/06 06:48:11;;;;;;;7.22;3.80;;;;;;;3.85;100.00;102025.03;4838876;29;20038;-73
2022/12/06 06:50:38;;;;;;;6.63;3.92;;;;;;;3.83;100.00;102013.66;4832895;29;20108;-73
2022/12/06 06:53:03;;;;;;;6.95;3.67;;;;;;;3.81;100.00;102009.22;4837309;29;20212;-73
2022/12/06 06:55:29;;;;;;;8.88;3.90;;;;;;;3.80;100.00;102016.16;4818753;29;20105;-74
2022/12/06 06:57:54;;;;;;;7.72;3.58;;;;;;;3.79;100.00;102006.53;4821766;29;20080;-74
2022/12/06 07:00:20;;;;;;;6.63;3.55;;;;;;;3.79;100.00;102010.91;4832926;29;20090;-74
2022/12/06 07:02:45;;;;;;;5.60;3.20;;;;;;;3.78;100.00;102017.84;4809563;29;20043;-74
2022/12/06 07:05:11;;;;;;;9.93;4.05;;;;;;;3.77;100.00;102013.47;4815061;29;20518;-74
2022/12/06 07:07:36;;;;;;;8.73;3.42;;;;;;;3.75;100.00;102017.78;4806507;29;20121;-74
2022/12/06 07:10:03;;;;;;;8.13;3.30;;;;;;;3.74;100.00;102017.78;4823013;29;20030;-74
2022/12/06 07:12:28;;;;;;;7.43;3.22;;;;;;;3.73;100.00;102016.84;4806636;29;20081;-74
2022/12/06 07:14:54;;;;;;;7.15;2.83;;;;;;;3.72;100.00;102017.72;4804733;29;20093;-74
2022/12/06 07:17:19;;;;;;;5.75;2.92;;;;;;;3.73;100.00;102015.97;4838406;29;20054;-74
2022/12/06 07:19:44;;;;;;;8.85;3.10;;;;;;;3.72;100.00;102020.34;4816336;29;20038;-74
2022/12/06 07:22:10;;;;;;;7.30;3.22;;;;;;;3.71;100.00;102013.34;4820778;29;20147;-74
2022/12/06 07:24:36;;;;;;;9.02;3.33;;;;;;;3.73;100.00;102026.47;4790595;29;20050;-74
2022/12/06 07:27:01;;;;;;;6.85;3.08;;;;;;;3.70;100.00;102019.41;4835010;29;20109;-74
2022/12/06 07:29:27;;;;;;;8.23;3.22;;;;;;;3.70;100.00;102016.78;4822168;29;20068;-74
2022/12/06 07:31:52;;;;;;;8.10;3.15;;;;;;;3.70;100.00;102010.66;4834543;29;20133;-74
2022/12/06 07:34:18;;;;;;;6.72;3.85;;;;;;;3.70;100.00;102023.78;4840149;29;20486;-74
2022/12/06 07:36:43;;;;;;;9.32;3.40;;;;;;;3.68;100.00;102018.47;4840281;29;20049;-74
2022/12/06 07:39:08;;;;;;;6.80;3.70;;;;;;;3.69;100.00;102014.16;4827091;29;20082;-74
2022/12/06 07:47:17;;;;;;;4.78;2.88;;;;;;;3.67;100.00;102021.97;4822070;29;20057;-74
2022/12/06 07:49:43;;;;;;;6.40;3.30;;;;;;;3.64;100.00;102025.38;4827522;29;20026;-74
2022/12/06 07:52:08;;;;;;;6.30;3.30;;;;;;;3.65;100.00;102027.16;4812665;29;20297;-74
2022/12/06 07:54:34;;;;;;;8.30;3.10;;;;;;;3.65;100.00;102023.66;4790422;29;20103;-74
2022/12/06 07:56:59;;;;;;;7.90;3.63;;;;;;;3.66;100.00;102031.56;4821949;29;20069;-74
2022/12/06 07:59:25;;;;;;;7.00;3.53;;;;;;;3.67;100.00;102033.31;4830602;29;20201;-71
2022/12/06 08:01:51;;;;;;;6.57;3.60;;;;;;;3.66;100.00;102035.91;4808339;29;20050;-75
2022/12/06 08:04:17;;;;;;;5.43;3.45;;;;;;;3.65;100.00;102028.88;4793311;29;20090;-75
2022/12/06 08:06:43;;;;;;;7.32;4.18;;;;;;;3.67;100.00;102032.44;4824990;29;20129;-75
2022/12/06 08:09:09;;;;;;;5.85;3.00;;;;;;;3.69;100.00;102041.22;4808593;29;20117;-75
2022/12/06 08:11:35;;;;;;;6.40;3.50;;;;;;;3.71;100.00;102033.38;4825026;29;20453;-75
2022/12/06 08:14:02;;;;;;;7.63;4.32;;;;;;;3.71;100.00;102036.91;4824841;29;20126;-77
2022/12/06 08:16:28;;;;;;;10.63;3.60;;;;;;;3.71;100.00;102031.69;4820009;29;20092;-77
2022/12/06 08:18:54;;;;;;;6.78;3.15;;;;;;;3.74;100.00;102030.88;4833833;29;20510;-77
2022/12/06 08:21:20;;;;;;;7.53;3.42;;;;;;;3.73;100.00;102029.06;4832963;29;20054;-77
2022/12/06 08:23:45;;;;;;;7.70;3.20;;;;;;;3.71;100.00;102033.38;4837222;29;20161;-77
2022/12/06 08:26:14;;;;;;;9.80;3.20;;;;;;;3.70;100.00;102029.88;4826231;29;20098;-77
2022/12/06 08:28:42;;;;;;;5.72;3.17;;;;;;;3.67;100.00;102030.69;4842922;29;20034;-78
2022/12/06 08:31:16;;;;;;;6.78;3.28;;;;;;;3.62;100.00;102040.19;4843081;29;20487;-78
2022/12/06 08:33:42;;;;;;;7.45;3.42;;;;;;;3.58;100.00;102035.69;4842883;29;20129;-78
2022/12/06 08:36:11;;;;;;;7.57;2.85;;;;;;;3.53;100.00;102039.03;4843163;29;20458;-77
2022/12/06 08:38:37;;;;;;;5.15;2.80;;;;;;;3.45;100.00;102042.34;4841169;29;20488;-78
2022/12/06 08:41:04;;;;;;;6.00;3.20;;;;;;;3.42;100.00;102047.50;4825617;29;20450;-78
2022/12/06 08:43:30;;;;;;;5.00;2.88;;;;;;;3.36;100.00;102047.38;4843038;29;20056;-78
2022/12/06 08:45:56;;;;;;;6.15;2.90;;;;;;;3.32;100.00;102042.88;4842739;29;20557;-78
2022/12/06 08:48:21;;;;;;;5.75;3.40;;;;;;;3.31;100.00;102054.16;4823617;29;20053;-79
2022/12/06 08:50:47;;;;;;;7.15;3.33;;;;;;;3.31;100.00;102056.78;4838381;29;20038;-79
2022/12/06 08:53:12;;;;;;;10.63;3.55;;;;;;;3.32;100.00;102060.31;4795404;29;20046;-79
2022/12/06 08:55:40;;;;;;;5.22;3.38;;;;;;;3.33;100.00;102056.84;4807949;29;20094;-79
2022/12/06 08:58:06;;;;;;;4.90;3.25;;;;;;;3.34;100.00;102055.97;4824345;29;20145;-79
2022/12/06 09:00:31;;;;;;;7.78;3.88;;;;;;;3.36;100.00;102057.84;4822300;29;20030;-79
2022/12/06 09:02:57;;;;;;;9.48;3.65;;;;;;;3.38;100.00;102055.22;4807977;29;20099;-79
2022/12/06 09:05:22;;;;;;;11.05;4.40;;;;;;;3.41;100.00;102056.22;4807466;29;20486;-79
2022/12/06 09:07:48;;;;;;;8.95;4.80;;;;;;;3.45;100.00;102058.06;4824250;29;20051;-79
2022/12/06 09:10:13;;;;;;;9.23;4.32;;;;;;;3.51;100.00;102056.44;4792471;29;20103;-79
2022/12/06 09:12:38;;;;;;;7.78;4.45;;;;;;;3.56;100.00;102060.06;4806440;29;20095;-79
2022/12/06 09:15:04;;;;;;;8.40;4.32;;;;;;;3.61;100.00;102055.84;4824816;29;20467;-79
2022/12/06 09:17:30;;;;;;;10.05;4.72;;;;;;;3.65;100.00;102055.97;4821913;29;20102;-79
2022/12/06 09:19:55;;;;;;;8.40;4.00;;;;;;;3.70;100.00;102063.06;4836119;29;20070;-79
2022/12/06 09:22:21;;;;;;;9.35;4.22;;;;;;;3.75;100.00;102064.06;4833800;29;20058;-79
2022/12/06 09:24:47;;;;;;;10.95;4.03;;;;;;;3.77;100.00;102060.63;4842141;29;20160;-79
2022/12/06 09:27:12;;;;;;;13.02;4.18;;;;;;;3.80;100.00;102068.56;4825566;29;20054;-79
2022/12/06 09:29:38;;;;;;;9.85;4.57;;;;;;;3.85;100.00;102066.06;4841980;29;20446;-79
2022/12/06 09:32:03;;;;;;;7.97;3.80;;;;;;;3.88;100.00;102064.44;4825415;29;20042;-79
2022/12/06 09:34:30;;;;;;;8.43;4.45;;;;;;;3.91;100.00;102066.25;4841944;29;20084;-79
2022/12/06 09:37:06;;;;;;;8.05;4.50;;;;;;;3.95;100.00;102064.56;4825630;29;20125;-79
2022/12/06 09:39:43;;;;;;;10.68;4.13;;;;;;;3.99;100.00;102066.44;4812911;29;20440;-79
2022/12/06 09:42:30;;;;;;;9.27;3.92;;;;;;;4.03;100.00;102074.41;4841921;29;20041;-80
2022/12/06 09:45:11;;;;;;;7.10;3.55;;;;;;;4.06;100.00;102066.63;4821653;29;20184;-80
2022/12/06 09:47:56;;;;;;;7.22;3.95;;;;;;;4.09;100.00;102071.03;4841714;29;20081;-80
2022/12/06 09:50:42;;;;;;;6.18;3.60;;;;;;;4.16;100.00;102062.47;4828163;29;20042;-79
2022/12/06 09:53:13;;;;;;;10.15;3.63;;;;;;;4.20;100.00;102064.31;4817015;29;20060;-79
2022/12/06 09:56:08;;;;;;;5.40;3.47;;;;;;;4.22;100.00;102060.00;4841773;29;20391;-80
2022/12/06 09:58:39;;;;;;;8.68;3.72;;;;;;;4.24;100.00;102060.91;4805407;29;20380;-80
2022/12/06 10:01:27;;;;;;;6.20;3.45;;;;;;;4.30;100.00;102068.03;4810836;29;20046;-80
2022/12/06 10:04:21;;;;;;;7.60;3.95;;;;;;;4.34;100.00;102058.53;4825126;29;20065;-80
2022/12/06 10:07:06;;;;;;;8.77;3.58;;;;;;;4.40;100.00;102051.69;4818193;29;20031;-80
2022/12/06 10:09:49;;;;;;;9.68;4.03;;;;;;;4.45;100.00;102052.69;4820822;29;20076;-80
2022/12/06 10:12:42;;;;;;;5.55;3.47;;;;;;;4.53;100.00;102051.09;4841464;29;20090;-80
2022/12/06 10:15:21;;;;;;;5.25;3.80;;;;;;;4.59;100.00;102050.34;4828419;29;20038;-80
2022/12/06 10:18:08;;;;;;;4.85;3.47;;;;;;;4.62;100.00;102046.91;4835948;29;20168;-80
2022/12/06 10:20:48;;;;;;;9.32;4.00;;;;;;;4.65;100.00;102049.59;4839680;29;20097;-80
2022/12/06 10:23:37;;;;;;;7.65;3.42;;;;;;;4.65;100.00;102045.25;4810165;29;20128;-80
2022/12/06 10:26:21;;;;;;;6.45;3.38;;;;;;;4.70;100.00;102050.59;4841408;29;20498;-80
2022/12/06 10:28:59;;;;;;;10.32;4.03;;;;;;;4.68;100.00;102050.56;4841056;29;20070;-80
2022/12/06 10:31:54;;;;;;;7.47;3.70;;;;;;;4.70;100.00;102055.84;4841383;29;20170;-80
2022/12/06 10:34:39;;;;;;;6.28;3.15;;;;;;;4.67;100.00;102059.28;4838593;29;20053;-80
2022/12/06 10:37:20;;;;;;;6.13;3.53;;;;;;;4.67;100.00;102055.75;4824575;29;20049;-80
2022/12/06 10:39:51;;;;;;;5.28;3.47;;;;;;;4.67;100.00;102050.50;4819497;29;20550;-80
2022/12/06 10:42:32;;;;;;;6.70;3.63;;;;;;;4.70;100.00;102051.47;4828036;29;20037;-80
2022/12/06 10:47:02;;;;;;;8.35;4.10;;;;;;;4.69;100.00;102031.31;4841005;29;20037;-80
2022/12/06 10:47:55;;;;;;;9.57;3.70;;;;;;;4.73;100.00;102046.28;4840846;29;20069;-80
2022/12/06 10:50:25;;;;;;;6.97;3.93;;;;;;;4.75;100.00;102041.09;4817633;29;20064;-80
2022/12/06 10:53:00;;;;;;;9.35;4.05;;;;;;;4.79;100.00;102037.66;4840859;29;20399;-80
2022/12/06 10:55:42;;;;;;;9.52;4.18;;;;;;;4.82;100.00;102028.97;4840800;29;20071;-80
2022/12/06 10:58:26;;;;;;;7.57;3.33;;;;;;;4.85;100.00;102039.53;4819304;29;20042;-80
2022/12/06 11:01:01;;;;;;;7.93;3.75;;;;;;;4.86;100.00;102039.56;4805353;29;20095;-80
2022/12/06 11:03:38;;;;;;;6.05;3.63;;;;;;;4.85;100.00;102035.19;4822634;29;20042;-80
2022/12/06 11:06:14;;;;;;;10.13;3.88;;;;;;;4.90;99.81;102036.16;4806555;29;20118;-80
2022/12/06 11:08:47;;;;;;;7.70;3.47;;;;;;;4.93;99.87;102037.94;4805644;29;20083;-80
2022/12/06 11:11:17;;;;;;;6.60;3.30;;;;;;;4.98;98.85;102038.94;4822556;29;20042;-80
2022/12/06 11:13:46;;;;;;;8.13;3.17;;;;;;;5.01;98.72;102036.34;4822466;29;20062;-79
2022/12/06 11:16:20;;;;;;;8.93;3.80;;;;;;;5.07;98.25;102038.22;4815754;29;20045;-79
2022/12/06 11:18:47;;;;;;;4.72;2.83;;;;;;;5.13;99.15;102039.22;4814219;29;20049;-79
2022/12/06 11:21:37;;;;;;;4.60;2.80;;;;;;;5.21;98.05;102043.75;4832218;29;20046;-79
2022/12/06 11:24:19;;;;;;;7.72;3.08;;;;;;;5.22;96.70;102041.16;4838773;29;20042;-79
2022/12/06 11:26:50;;;;;;;5.80;2.90;;;;;;;5.25;96.88;102033.34;4840802;29;20053;-80
2022/12/06 11:29:16;;;;;;;5.93;2.97;;;;;;;5.33;97.71;102026.47;4840724;29;20097;-80
2022/12/06 11:32:00;;;;;;;5.55;2.88;;;;;;;5.43;97.74;102030.16;4840108;29;20041;-80
2022/12/06 11:34:37;;;;;;;11.82;3.70;;;;;;;5.51;97.90;102031.19;4820460;29;20141;-79
2022/12/06 11:37:04;;;;;;;11.35;3.20;;;;;;;5.56;96.76;102029.53;4825889;29;20082;-80
2022/12/06 11:39:31;;;;;;;7.68;2.88;;;;;;;5.51;93.57;102018.03;4825423;29;20042;-79
2022/12/06 11:42:01;;;;;;;9.30;2.55;;;;;;;5.47;92.83;102025.88;4811906;29;20154;-80
2022/12/06 11:44:35;;;;;;;6.07;2.78;;;;;;;5.42;92.47;102017.91;4824638;29;20117;-80
2022/12/06 11:47:01;;;;;;;6.93;2.47;;;;;;;5.47;93.16;102017.97;4825474;29;20053;-80
2022/12/06 11:49:26;;;;;;;4.53;2.70;;;;;;;5.53;93.31;102018.97;4825485;29;20037;-80
2022/12/06 11:51:53;;;;;;;8.70;2.80;;;;;;;5.64;92.92;102020.88;4809248;29;20034;-80
2022/12/06 11:54:27;;;;;;;12.05;2.72;;;;;;;5.69;91.59;102012.25;4824744;29;20071;-80
2022/12/06 11:56:57;;;;;;;7.18;2.90;;;;;;;5.75;92.46;102014.97;4824345;29;20075;-80
2022/12/06 11:59:33;;;;;;;4.68;2.58;;;;;;;5.76;92.36;102007.94;4824752;29;20050;-80
2022/12/06 12:02:01;;;;;;;5.50;2.65;;;;;;;5.75;90.22;102007.06;4800260;29;20034;-81